Weott, California
Current Conditions -  °F | °C
As of 6:15 AM on Thursday 30 Oct 2014 (Local Time) from KFOT Reporting Station
Overcast Overcast  
Wind Chill: 54°   Ceiling: 100
Heat Index: 54°   Visibility: 0mi
Dew Point: 54°   Wind: 6mph
Humidity: 100%   Direction: 140°SE
Pressure: 29.94"   Gusts: NA
Location:  40.32°N, 123.92°W
Report Text: KFOT 301315Z AUTO 14005KT M1/4SM OVC001 12/12 A2994 RMK AO1
Loading
Personal Weather Stations






























Interactive Weather Map
Tropical Storm Tracking
New forecast layout! Learn more

10-Day Weather Forecast

Advertisements
Track Severe Weather on mobile